Terminal Aerodrome Forecast
Issued by NWS

Home | Current Version | Previous Version | Text Only | Print | Product List | Glossary On
Versions: 1 2 3 4 5 6 7 8 9 10 11 12 13 14 15 16 17 18 19 20
000
FTPA31 PHFO 271700
TAFJHM
TAF
PHJH 271728Z 2718/2818 VRB06KT P6SM FEW045
     FM271930 35008KT P6SM BKN040
     FM272200 01014KT P6SM FEW040 SCT050
      AMD NOT SKED AFT 280400=

USA.gov is the U.S. government's official web portal to all federal, state and local government web resources and services.